East Townsend, Ohio
Current Conditions -  °F | °C
As of 4:53 AM on Saturday 25 Oct 2014 (Local Time) from KLPR Reporting Station
Clear Clear  
Wind Chill: 45°   Ceiling: Unl
Heat Index: 48°   Visibility: 9mi
Dew Point: 43°   Wind: 7mph
Humidity: 83%   Direction: 230°SW
Pressure: 29.93"   Gusts: NA
Location:  41.2571°N, 82.4875°W
Report Text: KLPR 250853Z AUTO 23006KT 9SM CLR 09/06 A2993 RMK AO2 SLP136 T00890061 58013 TSNO
Loading
Personal Weather Stations






























Interactive Weather Map
Tropical Storm Tracking
New forecast layout! Learn more

10-Day Weather Forecast

Advertisements
Track Severe Weather on mobile